| time (UTC) | temp F | wind direction | speed MPH | gust MPH | rain 1hr in | rain 24hr in | rain mn in | humidity % | barometer mb |
| 20260504030057 | 57 | 189 | 0.0 | 4.0 | 0.00 | 0.11 | 0.11 | 64 | 1005.1 |
| 20260504024600 | 58 | 243 | 2.0 | 5.0 | 0.00 | 0.11 | 0.11 | 63 | 1005.0 |
| 20260504023056 | 59 | 191 | 2.0 | 6.0 | 0.00 | 0.11 | 0.11 | 61 | 1005.0 |
| 20260504021555 | 60 | 205 | 2.0 | 7.0 | 0.00 | 0.11 | 0.11 | 59 | 1004.9 |
| 20260504020055 | 61 | 200 | 2.0 | 7.0 | 0.00 | 0.11 | 0.11 | 58 | 1004.8 |
| 20260504014554 | 61 | 221 | 3.0 | 9.0 | 0.00 | 0.11 | 0.11 | 56 | 1004.6 |
| 20260504013106 | 62 | 219 | 3.0 | 9.0 | 0.00 | 0.11 | 0.11 | 55 | 1004.5 |
| 20260504011553 | 62 | 236 | 3.0 | 9.0 | 0.00 | 0.11 | 0.11 | 54 | 1004.5 |
| 20260504010101 | 63 | 226 | 2.0 | 9.0 | 0.00 | 0.11 | 0.11 | 52 | 1004.4 |
| 20260504004605 | 65 | 235 | 3.0 | 9.0 | 0.00 | 0.11 | 0.11 | 50 | 1004.3 |
| 20260504003049 | 66 | 222 | 5.0 | 12.0 | 0.00 | 0.11 | 0.11 | 48 | 1004.4 |
| 20260504001549 | 67 | 253 | 5.0 | 12.0 | 0.00 | 0.11 | 0.11 | 46 | 1004.5 |
| 20260504000048 | 67 | 219 | 4.0 | 14.0 | 0.00 | 0.11 | 0.11 | 45 | 1004.5 |
| 20260503234548 | 68 | 231 | 3.0 | 18.0 | 0.00 | 0.11 | 0.11 | 44 | 1004.6 |
| 20260503233048 | 68 | 227 | 5.0 | 14.0 | 0.00 | 0.11 | 0.11 | 43 | 1004.6 |
| 20260503231548 | 69 | 220 | 6.0 | 16.0 | 0.00 | 0.11 | 0.11 | 42 | 1004.6 |
| 20260503230053 | 69 | 175 | 5.0 | 17.0 | 0.00 | 0.11 | 0.11 | 42 | 1004.6 |
| 20260503224543 | 69 | 235 | 7.0 | 16.0 | 0.00 | 0.11 | 0.11 | 41 | 1004.8 |
| 20260503223042 | 68 | 179 | 7.0 | 16.0 | 0.00 | 0.11 | 0.11 | 41 | 1005.0 |
| 20260503221540 | 69 | 269 | 8.0 | 21.0 | 0.00 | 0.11 | 0.11 | 40 | 1005.2 |
| 20260503220039 | 68 | 222 | 4.0 | 16.0 | 0.00 | 0.11 | 0.11 | 41 | 1005.1 |
| 20260503214536 | 68 | 263 | 5.0 | 16.0 | 0.00 | 0.11 | 0.11 | 41 | 1005.2 |
| 20260503213033 | 67 | 180 | 6.0 | 14.0 | 0.00 | 0.11 | 0.11 | 42 | 1005.5 |
| 20260503211531 | 67 | 165 | 5.0 | 18.0 | 0.00 | 0.11 | 0.11 | 43 | 1005.8 |
| 20260503210028 | 65 | 286 | 6.0 | 16.0 | 0.00 | 0.11 | 0.11 | 44 | 1006.1 |
| 20260503204524 | 64 | 257 | 10.0 | 19.0 | 0.00 | 0.11 | 0.11 | 43 | 1006.5 |
| 20260503203023 | 64 | 234 | 9.0 | 19.0 | 0.00 | 0.11 | 0.11 | 42 | 1006.9 |
| 20260503201519 | 66 | 252 | 12.0 | 21.0 | 0.00 | 0.11 | 0.11 | 39 | 1006.9 |
| 20260503200016 | 65 | 230 | 7.0 | 21.0 | 0.00 | 0.11 | 0.11 | 41 | 1007.1 |
| 20260503194514 | 64 | 179 | 13.0 | 25.0 | 0.00 | 0.11 | 0.11 | 40 | 1007.3 |
| 20260503193013 | 64 | 231 | 11.0 | 22.0 | 0.00 | 0.11 | 0.11 | 45 | 1007.5 |
| 20260503191525 | 62 | 224 | 8.0 | 27.0 | 0.00 | 0.11 | 0.11 | 48 | 1007.8 |
| 20260503190006 | 61 | 198 | 8.0 | 23.0 | 0.00 | 0.11 | 0.11 | 53 | 1008.0 |
| 20260503184605 | 59 | 164 | 8.0 | 19.0 | 0.00 | 0.11 | 0.11 | 60 | 1008.2 |
| 20260503183056 | 57 | 146 | 8.0 | 17.0 | 0.00 | 0.11 | 0.11 | 64 | 1008.6 |
| 20260503181551 | 55 | 136 | 8.0 | 15.0 | 0.01 | 0.11 | 0.11 | 68 | 1008.9 |
| 20260503180100 | 53 | 263 | 6.0 | 11.0 | 0.01 | 0.11 | 0.11 | 76 | 1009.4 |
| 20260503174546 | 50 | 214 | 3.0 | 11.0 | 0.02 | 0.11 | 0.11 | 83 | 1009.8 |
| 20260503173049 | 48 | 225 | 4.0 | 10.0 | 0.02 | 0.11 | 0.11 | 83 | 1010.2 |
| 20260503171537 | 48 | 163 | 4.0 | 11.0 | 0.02 | 0.10 | 0.10 | 83 | 1011.2 |
| 20260503081531 | 42 | 240 | 1.0 | 4.0 | 0.00 | 0.01 | 0.00 | 66 | 1014.1 |
| 20260503071527 | 43 | 217 | 1.0 | 5.0 | 0.00 | 0.01 | 0.00 | 65 | 1014.2 |
| 20260503054513 | 44 | 238 | 1.0 | 6.0 | 0.00 | 0.01 | 0.00 | 59 | 1015.0 |
| 20260503053011 | 44 | 182 | 1.0 | 4.0 | 0.00 | 0.01 | 0.00 | 58 | 1015.1 |
| 20260503051511 | 45 | 217 | 1.0 | 4.0 | 0.00 | 0.01 | 0.00 | 57 | 1015.2 |
| 20260503050008 | 45 | 199 | 1.0 | 4.0 | 0.00 | 0.01 | 0.00 | 57 | 1015.3 |
| 20260503044506 | 45 | 200 | 2.0 | 6.0 | 0.00 | 0.01 | 0.01 | 56 | 1015.3 |
| 20260503043020 | 45 | 175 | 2.0 | 5.0 | 0.00 | 0.01 | 0.01 | 56 | 1015.3 |
| 20260503041505 | 45 | 216 | 1.0 | 5.0 | 0.00 | 0.01 | 0.01 | 56 | 1015.4 |
| 20260503040004 | 45 | 228 | 1.0 | 4.0 | 0.00 | 0.01 | 0.01 | 56 | 1015.5 |
| 20260503034503 | 46 | 225 | 0.0 | 3.0 | 0.00 | 0.01 | 0.01 | 56 | 1015.5 |
| 20260503033014 | 46 | 238 | 0.0 | 3.0 | 0.00 | 0.01 | 0.01 | 56 | 1015.5 |
| 20260503031503 | 46 | 226 | 1.0 | 3.0 | 0.00 | 0.01 | 0.01 | 56 | 1015.6 |